Time;durP1;ratioP1;P1;durP2;ratioP2;P2;SDS_P1;SDS_P2;PMS_P1;PMS_P2;Temp;Humidity;BMP_temperature;BMP_pressure;BME280_temperature;BME280_humidity;BME280_pressure;Samples;Min_cycle;Max_cycle;Signal;HPM_P1;HPM_P2
2023/08/15 00:01:20;;;;;;;8.60;6.78;;;23.10;99.90;;;;;;4996408;28;20201;-74
2023/08/15 00:03:46;;;;;;;8.48;4.10;;;23.10;99.90;;;;;;4997587;28;20270;-73
2023/08/15 00:06:13;;;;;;;9.57;6.25;;;23.10;99.90;;;;;;4991456;28;20214;-73
2023/08/15 00:08:38;;;;;;;7.53;4.68;;;23.10;99.90;;;;;;4995163;28;20271;-73
2023/08/15 00:11:04;;;;;;;5.70;3.60;;;23.20;99.90;;;;;;4990139;28;20206;-73
2023/08/15 00:13:29;;;;;;;9.05;3.65;;;23.20;99.90;;;;;;4989993;28;20692;-74
2023/08/15 00:15:55;;;;;;;4.38;3.55;;;23.20;99.90;;;;;;4990940;28;20231;-73
2023/08/15 00:18:21;;;;;;;5.95;4.25;;;23.20;99.90;;;;;;4992357;28;20205;-73
2023/08/15 00:20:48;;;;;;;4.55;3.33;;;23.10;99.90;;;;;;4993687;28;20232;-73
2023/08/15 00:23:14;;;;;;;5.13;4.03;;;23.20;99.90;;;;;;4982308;28;20225;-74
2023/08/15 00:25:39;;;;;;;7.15;4.50;;;23.00;99.90;;;;;;4986303;28;20185;-73
2023/08/15 00:28:05;;;;;;;5.75;3.25;;;23.00;99.90;;;;;;4983728;28;20174;-73
2023/08/15 00:30:34;;;;;;;7.63;3.70;;;23.00;99.90;;;;;;4982589;28;20591;-71
2023/08/15 00:33:01;;;;;;;5.05;3.90;;;23.10;99.90;;;;;;4995350;28;20209;-73
2023/08/15 00:35:27;;;;;;;5.78;3.42;;;23.10;99.90;;;;;;4999036;28;20593;-73
2023/08/15 00:37:52;;;;;;;6.93;4.03;;;23.10;99.90;;;;;;4999496;28;20208;-74
2023/08/15 00:40:18;;;;;;;5.22;3.17;;;22.90;99.90;;;;;;5000367;28;20715;-74
2023/08/15 00:42:44;;;;;;;4.13;2.20;;;22.70;99.90;;;;;;4997925;28;20217;-73
2023/08/15 00:45:10;;;;;;;3.05;2.20;;;22.20;99.90;;;;;;4994319;28;20240;-74
2023/08/15 00:47:37;;;;;;;2.95;1.90;;;22.00;99.90;;;;;;4992068;28;20722;-74
2023/08/15 00:50:05;;;;;;;2.25;2.05;;;21.90;99.90;;;;;;4990043;28;20221;-74
2023/08/15 00:52:31;;;;;;;4.20;2.13;;;22.00;99.90;;;;;;4990981;28;20661;-73
2023/08/15 00:54:57;;;;;;;4.55;2.50;;;22.00;99.90;;;;;;4989311;28;20178;-74
2023/08/15 00:57:23;;;;;;;4.20;2.95;;;22.10;99.90;;;;;;4985040;28;20211;-73
2023/08/15 00:59:48;;;;;;;5.32;3.40;;;22.20;99.90;;;;;;4986897;28;20260;-74
2023/08/15 01:02:14;;;;;;;4.88;3.15;;;22.30;99.90;;;;;;4983313;28;20700;-74
2023/08/15 01:04:41;;;;;;;3.53;2.00;;;22.30;99.90;;;;;;4985309;28;20189;-73
2023/08/15 01:07:09;;;;;;;2.47;1.63;;;22.40;99.90;;;;;;4982550;28;20173;-73
2023/08/15 01:09:35;;;;;;;2.85;1.55;;;22.30;99.90;;;;;;4982645;28;20696;-73
2023/08/15 01:12:08;;;;;;;3.60;1.48;;;22.20;99.90;;;;;;4987215;28;20679;-73
2023/08/15 01:14:41;;;;;;;1.90;1.80;;;22.10;99.90;;;;;;4998175;28;20205;-74
2023/08/15 01:17:12;;;;;;;3.17;1.73;;;22.10;99.90;;;;;;4998600;28;20591;-73
2023/08/15 01:19:49;;;;;;;4.45;1.83;;;22.10;99.90;;;;;;4996122;28;20595;-73
2023/08/15 01:22:23;;;;;;;2.97;1.60;;;22.20;99.90;;;;;;4992870;28;20193;-73
2023/08/15 01:24:49;;;;;;;5.72;2.17;;;21.90;99.90;;;;;;4986069;28;20193;-73
2023/08/15 01:27:15;;;;;;;5.43;1.95;;;21.70;99.90;;;;;;4991999;28;20205;-74
2023/08/15 01:29:41;;;;;;;3.05;1.95;;;21.60;99.90;;;;;;4991753;28;20565;-73
2023/08/15 01:32:25;;;;;;;4.18;2.28;;;21.40;99.90;;;;;;4989563;28;20213;-72
2023/08/15 01:35:13;;;;;;;2.72;2.50;;;21.40;99.90;;;;;;4984947;28;20215;-74
2023/08/15 01:37:44;;;;;;;4.63;2.60;;;21.30;99.90;;;;;;4989110;28;20269;-73
2023/08/15 01:40:14;;;;;;;4.30;2.17;;;21.40;99.90;;;;;;4986421;28;20685;-74
2023/08/15 01:42:40;;;;;;;2.70;2.17;;;21.40;99.90;;;;;;4983190;28;20221;-72
2023/08/15 01:45:08;;;;;;;3.92;2.35;;;21.40;99.90;;;;;;4982470;28;20272;-74
2023/08/15 01:47:34;;;;;;;5.13;2.70;;;21.40;99.90;;;;;;4981042;28;20221;-74
2023/08/15 01:50:00;;;;;;;4.88;1.75;;;21.40;99.90;;;;;;4985772;28;20242;-73
2023/08/15 01:52:26;;;;;;;2.38;1.67;;;21.30;99.90;;;;;;4988478;28;20276;-74
2023/08/15 01:54:52;;;;;;;3.97;2.20;;;21.20;99.90;;;;;;5000901;28;20182;-72
2023/08/15 01:57:17;;;;;;;3.55;2.15;;;21.50;99.90;;;;;;4995254;28;20795;-73
2023/08/15 01:59:43;;;;;;;3.25;1.67;;;21.60;99.90;;;;;;4997695;28;20303;-74
2023/08/15 02:02:10;;;;;;;3.15;1.90;;;21.60;99.90;;;;;;4992190;28;20300;-73
2023/08/15 02:04:36;;;;;;;3.28;1.90;;;21.50;99.90;;;;;;4989847;28;20183;-74
2023/08/15 02:07:01;;;;;;;2.65;1.70;;;21.50;99.90;;;;;;4995865;28;20177;-73
2023/08/15 02:09:27;;;;;;;2.80;1.75;;;21.50;99.90;;;;;;4992932;28;20226;-74
2023/08/15 02:11:52;;;;;;;3.22;1.60;;;21.40;99.90;;;;;;4995842;28;20212;-74
2023/08/15 02:14:18;;;;;;;2.28;1.88;;;21.40;99.90;;;;;;4993345;28;20213;-74
2023/08/15 02:16:44;;;;;;;3.20;1.83;;;21.60;99.90;;;;;;4993717;28;20348;-74
2023/08/15 02:19:10;;;;;;;2.75;1.90;;;21.60;99.90;;;;;;4989182;28;20288;-74
2023/08/15 02:21:35;;;;;;;1.85;1.60;;;21.70;99.90;;;;;;4988744;28;20225;-74
2023/08/15 02:24:01;;;;;;;3.75;2.00;;;21.60;99.90;;;;;;4982761;28;20210;-74
2023/08/15 02:26:26;;;;;;;4.35;3.42;;;21.60;99.90;;;;;;4979630;28;20294;-73
2023/08/15 02:28:52;;;;;;;3.00;2.30;;;21.60;99.90;;;;;;4987058;28;20216;-74
2023/08/15 02:31:18;;;;;;;2.83;2.00;;;21.70;99.90;;;;;;4987289;28;20555;-74
2023/08/15 02:33:43;;;;;;;4.47;3.55;;;21.60;99.90;;;;;;4996099;28;20244;-73
2023/08/15 02:36:09;;;;;;;3.83;2.78;;;21.60;99.90;;;;;;5000321;28;20316;-74
2023/08/15 02:38:35;;;;;;;3.28;2.40;;;21.60;99.90;;;;;;4999917;28;20221;-73
2023/08/15 02:41:01;;;;;;;3.33;2.80;;;21.70;99.90;;;;;;4996934;28;20205;-74
2023/08/15 02:43:26;;;;;;;2.40;2.10;;;21.70;99.90;;;;;;4994700;28;20676;-74
2023/08/15 02:45:52;;;;;;;2.72;2.30;;;21.70;99.90;;;;;;4996185;28;20177;-74
2023/08/15 02:48:17;;;;;;;3.47;2.63;;;21.70;99.90;;;;;;4992153;28;20587;-73
2023/08/15 02:50:43;;;;;;;2.72;2.22;;;21.70;99.90;;;;;;4995247;28;20204;-74
2023/08/15 02:53:09;;;;;;;6.60;2.30;;;21.70;99.90;;;;;;4992506;28;20209;-74
2023/08/15 02:55:34;;;;;;;3.72;2.90;;;21.70;99.90;;;;;;4989084;28;20171;-73
2023/08/15 02:58:00;;;;;;;2.53;2.30;;;21.70;99.90;;;;;;4990169;28;20633;-74
2023/08/15 03:00:26;;;;;;;6.15;2.75;;;21.60;99.90;;;;;;4987497;28;20697;-74
2023/08/15 03:02:54;;;;;;;3.22;2.45;;;21.60;99.90;;;;;;4988248;28;20268;-74
2023/08/15 03:05:20;;;;;;;3.47;2.75;;;21.60;99.90;;;;;;4983650;28;20310;-73
2023/08/15 03:07:46;;;;;;;5.78;2.78;;;21.60;99.90;;;;;;4985541;28;20775;-74
2023/08/15 03:10:11;;;;;;;4.22;2.90;;;21.70;99.90;;;;;;4987883;28;20215;-73
2023/08/15 03:12:37;;;;;;;4.18;3.63;;;21.70;99.90;;;;;;4989182;28;20220;-71
2023/08/15 03:15:03;;;;;;;4.55;3.53;;;21.60;99.90;;;;;;5001601;28;20699;-73
2023/08/15 03:17:29;;;;;;;3.95;3.53;;;21.50;99.90;;;;;;4997791;28;20205;-73
2023/08/15 03:19:55;;;;;;;5.45;4.55;;;21.40;99.90;;;;;;4999757;28;20209;-74
2023/08/15 03:22:20;;;;;;;2.80;2.58;;;21.40;99.90;;;;;;4997725;28;20266;-74
2023/08/15 03:24:46;;;;;;;3.10;2.75;;;21.30;99.90;;;;;;4996227;28;20204;-75
2023/08/15 03:27:12;;;;;;;3.38;2.72;;;21.40;99.90;;;;;;4990012;28;20872;-74
2023/08/15 03:29:37;;;;;;;3.83;3.47;;;21.30;99.90;;;;;;4992399;28;20233;-74
2023/08/15 03:32:03;;;;;;;3.35;3.05;;;21.40;99.90;;;;;;4996255;28;20236;-74
2023/08/15 03:34:29;;;;;;;4.03;2.92;;;21.40;99.90;;;;;;4992250;28;20217;-74
2023/08/15 03:36:56;;;;;;;3.47;3.10;;;21.40;99.90;;;;;;4995582;28;20543;-74
2023/08/15 03:39:21;;;;;;;3.65;3.00;;;21.40;99.90;;;;;;4986907;28;20213;-72
2023/08/15 03:41:47;;;;;;;4.95;2.85;;;21.40;99.90;;;;;;4989370;28;20209;-74
2023/08/15 03:44:13;;;;;;;3.85;3.47;;;21.40;99.90;;;;;;4985741;28;20209;-73
2023/08/15 03:46:40;;;;;;;5.80;3.58;;;21.30;99.90;;;;;;4986264;28;20637;-74
2023/08/15 03:49:06;;;;;;;5.18;3.60;;;21.40;99.90;;;;;;4984564;28;20219;-74
2023/08/15 03:51:32;;;;;;;4.63;3.53;;;21.30;99.90;;;;;;4982083;28;20262;-74
2023/08/15 03:53:58;;;;;;;4.82;3.40;;;21.30;99.90;;;;;;5001744;28;20205;-74
2023/08/15 03:56:23;;;;;;;4.53;4.00;;;21.30;99.90;;;;;;4992250;28;20217;-71
2023/08/15 03:58:49;;;;;;;7.32;4.28;;;21.10;99.90;;;;;;4993624;28;20212;-73
2023/08/15 04:01:15;;;;;;;6.68;4.22;;;21.10;99.90;;;;;;4996919;28;20269;-74
2023/08/15 04:03:40;;;;;;;4.47;4.00;;;21.20;99.90;;;;;;4995909;28;20303;-74
2023/08/15 04:06:06;;;;;;;5.10;4.15;;;21.10;99.90;;;;;;4994780;28;20206;-74
2023/08/15 04:08:31;;;;;;;5.10;4.40;;;21.10;99.90;;;;;;4992126;28;20221;-73
2023/08/15 04:10:57;;;;;;;6.35;5.15;;;21.00;99.90;;;;;;4993392;28;20251;-73
2023/08/15 04:13:23;;;;;;;5.97;5.13;;;20.90;99.90;;;;;;4988044;28;20194;-74
2023/08/15 04:15:48;;;;;;;5.65;5.07;;;20.90;99.90;;;;;;4991757;28;20200;-73
2023/08/15 04:18:14;;;;;;;11.13;7.13;;;20.90;99.90;;;;;;4990588;28;20210;-73
2023/08/15 04:20:41;;;;;;;7.38;6.18;;;20.90;99.90;;;;;;4987672;28;20210;-73
2023/08/15 04:23:07;;;;;;;9.85;8.82;;;20.90;99.90;;;;;;4986271;28;20316;-72
2023/08/15 04:25:34;;;;;;;10.05;7.78;;;21.10;99.90;;;;;;4981354;28;20186;-73
2023/08/15 04:28:00;;;;;;;8.05;6.78;;;21.00;99.90;;;;;;4984153;28;20185;-73
2023/08/15 04:30:26;;;;;;;7.20;6.30;;;21.20;99.90;;;;;;4980447;28;20217;-71
2023/08/15 04:32:51;;;;;;;7.45;6.75;;;21.20;99.90;;;;;;4994400;28;20209;-73
2023/08/15 04:35:17;;;;;;;7.53;6.28;;;21.20;99.90;;;;;;4998321;28;20840;-73
2023/08/15 04:37:43;;;;;;;8.32;5.55;;;21.20;99.90;;;;;;4997390;28;20222;-73
2023/08/15 04:40:12;;;;;;;8.27;6.13;;;21.30;99.90;;;;;;4997797;28;20602;-73
2023/08/15 04:42:38;;;;;;;7.22;6.32;;;22.00;99.90;;;;;;4990850;28;20214;-73
2023/08/15 04:45:05;;;;;;;6.35;5.50;;;23.10;99.90;;;;;;4983635;28;20217;-73
2023/08/15 04:47:31;;;;;;;7.22;5.68;;;24.50;99.90;;;;;;4990291;28;20210;-74
2023/08/15 04:49:57;;;;;;;6.88;5.10;;;25.90;99.90;;;;;;4987896;28;20237;-74
2023/08/15 04:52:22;;;;;;;5.93;4.53;;;26.80;99.90;;;;;;4985608;28;20212;-74
2023/08/15 04:54:48;;;;;;;7.80;5.53;;;26.70;99.90;;;;;;4986104;28;20178;-72
2023/08/15 04:57:13;;;;;;;6.40;4.38;;;28.00;99.90;;;;;;4985254;28;20213;-74
2023/08/15 04:59:41;;;;;;;4.18;3.78;;;28.30;99.90;;;;;;4983306;28;20242;-74
2023/08/15 05:02:07;;;;;;;7.82;6.53;;;27.40;99.90;;;;;;4984823;28;20575;-75
2023/08/15 05:04:32;;;;;;;7.10;4.28;;;26.70;99.90;;;;;;4980074;28;20193;-73
2023/08/15 05:07:00;;;;;;;4.82;3.83;;;27.60;99.90;;;;;;4984848;28;20173;-73
2023/08/15 05:09:29;;;;;;;6.30;4.47;;;27.80;99.90;;;;;;4980096;28;20269;-74
2023/08/15 05:11:55;;;;;;;4.97;3.28;;;28.40;99.90;;;;;;4983500;28;20231;-74
2023/08/15 05:14:22;;;;;;;3.92;3.25;;;28.60;99.90;;;;;;4981550;28;20218;-73
2023/08/15 05:16:48;;;;;;;4.90;3.95;;;28.60;99.90;;;;;;4989665;28;20756;-74
2023/08/15 05:19:14;;;;;;;5.45;3.80;;;28.10;99.90;;;;;;4989808;28;20205;-75
2023/08/15 05:21:41;;;;;;;4.57;4.18;;;27.90;99.90;;;;;;4987950;28;20218;-74
2023/08/15 05:24:07;;;;;;;3.95;3.55;;;29.10;99.90;;;;;;4989064;28;20312;-74
2023/08/15 05:26:32;;;;;;;4.10;3.50;;;28.80;99.90;;;;;;4986390;28;20233;-73
2023/08/15 05:28:58;;;;;;;8.57;4.05;;;28.50;99.90;;;;;;4987216;28;20233;-76
2023/08/15 05:31:24;;;;;;;4.35;3.50;;;28.40;99.90;;;;;;4985448;28;20178;-73
2023/08/15 05:33:49;;;;;;;6.68;3.40;;;28.60;99.90;;;;;;4986283;28;20173;-74
2023/08/15 05:36:15;;;;;;;6.53;4.00;;;28.70;99.90;;;;;;4983859;28;20240;-75
2023/08/15 05:38:40;;;;;;;5.43;3.30;;;29.10;99.90;;;;;;4983053;28;20273;-74
2023/08/15 05:41:06;;;;;;;4.22;3.40;;;28.60;99.90;;;;;;4983892;28;20205;-75
2023/08/15 05:43:32;;;;;;;3.80;3.25;;;28.10;99.90;;;;;;4984537;28;20552;-73
2023/08/15 05:45:57;;;;;;;7.90;3.25;;;29.00;99.90;;;;;;4988482;28;20207;-73
2023/08/15 05:48:23;;;;;;;4.68;3.40;;;29.80;99.90;;;;;;4986263;28;20214;-71
2023/08/15 05:50:48;;;;;;;3.75;3.17;;;30.00;99.90;;;;;;4986138;28;20205;-72
2023/08/15 05:53:14;;;;;;;5.35;2.88;;;31.00;99.90;;;;;;4990346;28;20205;-73
2023/08/15 05:55:42;;;;;;;3.60;3.10;;;30.60;99.90;;;;;;4992001;28;20183;-73
2023/08/15 05:58:08;;;;;;;5.70;2.97;;;32.10;99.90;;;;;;4993612;28;20185;-73
2023/08/15 06:00:34;;;;;;;4.95;3.53;;;31.70;99.90;;;;;;4991642;28;20263;-75
2023/08/15 06:03:00;;;;;;;4.38;3.30;;;30.80;99.90;;;;;;4992770;28;20220;-74
2023/08/15 06:05:30;;;;;;;5.50;3.70;;;31.20;99.90;;;;;;4989031;28;20655;-73
2023/08/15 06:07:56;;;;;;;3.72;3.10;;;31.20;99.90;;;;;;4992870;28;20200;-73
2023/08/15 06:10:21;;;;;;;4.35;3.53;;;31.40;99.90;;;;;;4989803;28;20268;-71
2023/08/15 06:12:47;;;;;;;3.95;3.55;;;30.90;99.90;;;;;;4989801;28;20209;-73
2023/08/15 06:15:14;;;;;;;5.50;3.78;;;31.00;99.90;;;;;;4987658;28;20208;-72
2023/08/15 06:17:39;;;;;;;5.85;3.97;;;31.50;99.90;;;;;;4988425;28;20205;-74
2023/08/15 06:20:05;;;;;;;7.28;3.67;;;31.20;99.90;;;;;;4988337;28;20609;-74
2023/08/15 06:22:31;;;;;;;5.32;3.40;;;32.50;99.90;;;;;;4983454;28;20201;-73
2023/08/15 06:24:56;;;;;;;4.20;3.75;;;33.50;99.90;;;;;;4992600;28;20169;-73
2023/08/15 06:27:22;;;;;;;5.00;3.97;;;32.20;99.90;;;;;;4988313;28;20218;-71
2023/08/15 06:29:48;;;;;;;4.70;3.63;;;31.60;99.90;;;;;;4985230;28;20269;-73
2023/08/15 06:32:30;;;;;;;4.18;3.42;;;30.70;99.90;;;;;;4985923;28;20582;-73
2023/08/15 06:34:56;;;;;;;7.25;3.70;;;32.20;99.90;;;;;;4988879;28;20200;-73
2023/08/15 06:37:22;;;;;;;3.65;3.35;;;32.10;99.90;;;;;;4992152;28;20181;-72
2023/08/15 06:39:47;;;;;;;5.10;3.38;;;32.30;99.90;;;;;;4994291;28;20239;-74
2023/08/15 06:42:13;;;;;;;3.67;3.38;;;32.90;99.90;;;;;;4992621;28;20216;-73
2023/08/15 06:44:42;;;;;;;5.28;3.55;;;33.50;99.90;;;;;;4989867;28;20630;-73
2023/08/15 06:47:07;;;;;;;4.60;3.42;;;34.80;99.90;;;;;;4995394;28;20213;-73
2023/08/15 06:49:33;;;;;;;4.38;2.95;;;35.70;99.90;;;;;;4987783;28;20211;-73
2023/08/15 06:51:58;;;;;;;6.63;3.53;;;34.90;99.90;;;;;;4989943;28;20586;-74
2023/08/15 06:54:24;;;;;;;3.55;3.25;;;33.30;99.90;;;;;;4986929;28;20271;-74
2023/08/15 06:56:50;;;;;;;5.32;3.10;;;33.40;99.90;;;;;;4987547;28;20283;-73
2023/08/15 06:59:15;;;;;;;3.72;3.15;;;34.70;99.90;;;;;;4985284;28;20217;-74
2023/08/15 07:01:41;;;;;;;4.68;2.97;;;35.20;99.90;;;;;;4984276;28;20672;-73
2023/08/15 07:04:07;;;;;;;5.63;2.97;;;34.70;99.90;;;;;;4990056;28;20186;-74
2023/08/15 07:06:32;;;;;;;3.45;3.15;;;33.70;99.90;;;;;;4983476;28;20202;-73
2023/08/15 07:08:59;;;;;;;3.28;2.70;;;33.70;99.90;;;;;;4985557;28;20236;-74
2023/08/15 07:11:25;;;;;;;5.82;3.75;;;34.30;99.90;;;;;;4980926;28;20205;-72
2023/08/15 07:13:50;;;;;;;3.13;2.80;;;35.60;99.90;;;;;;4992685;28;20288;-72
2023/08/15 07:16:16;;;;;;;6.38;3.40;;;35.80;99.90;;;;;;4992623;28;20184;-74
2023/08/15 07:18:42;;;;;;;4.38;3.80;;;34.60;99.90;;;;;;4990811;28;20640;-74
2023/08/15 07:21:07;;;;;;;3.92;3.00;;;33.90;99.90;;;;;;4991201;28;20244;-74
2023/08/15 07:23:33;;;;;;;6.00;3.40;;;35.00;99.90;;;;;;4988175;28;20220;-73
2023/08/15 07:25:58;;;;;;;4.45;3.28;;;35.10;99.90;;;;;;4992610;28;20255;-72
2023/08/15 07:28:24;;;;;;;4.90;3.28;;;35.90;99.90;;;;;;4987387;28;20185;-73
2023/08/15 07:30:50;;;;;;;8.35;4.13;;;36.70;99.90;;;;;;4988695;28;20636;-74
2023/08/15 07:33:16;;;;;;;6.70;3.30;;;37.00;99.90;;;;;;4988030;28;20217;-73
2023/08/15 07:35:42;;;;;;;4.45;3.10;;;38.20;99.90;;;;;;4986031;28;20268;-72
2023/08/15 07:38:08;;;;;;;3.42;3.00;;;38.10;99.90;;;;;;4987726;28;20217;-73
2023/08/15 07:40:34;;;;;;;4.65;2.88;;;37.90;99.90;;;;;;4982668;28;20205;-72
2023/08/15 07:42:59;;;;;;;3.33;3.03;;;37.50;99.90;;;;;;4987435;28;20675;-72
2023/08/15 07:45:25;;;;;;;5.82;3.45;;;37.80;99.90;;;;;;4985432;28;20237;-73
2023/08/15 07:47:56;;;;;;;5.05;3.45;;;38.80;99.90;;;;;;4987794;28;20710;-72
2023/08/15 07:50:25;;;;;;;4.50;2.97;;;38.80;98.00;;;;;;4981983;28;20240;-72
2023/08/15 07:52:52;;;;;;;4.60;3.33;;;36.90;99.00;;;;;;4987515;28;20603;-73
2023/08/15 07:55:18;;;;;;;2.72;2.53;;;37.80;99.90;;;;;;4991760;28;20189;-73
2023/08/15 07:57:45;;;;;;;5.30;3.13;;;37.40;99.70;;;;;;4990658;28;20703;-73
2023/08/15 08:00:14;;;;;;;3.38;3.08;;;37.70;99.20;;;;;;4990712;28;20262;-72
2023/08/15 08:02:41;;;;;;;3.83;3.00;;;36.50;99.90;;;;;;4989213;28;20216;-72
2023/08/15 08:05:09;;;;;;;6.70;3.40;;;37.60;99.90;;;;;;4988597;28;20208;-72
2023/08/15 08:07:36;;;;;;;3.20;2.90;;;37.90;98.70;;;;;;4987425;28;20215;-72
2023/08/15 08:10:02;;;;;;;6.18;3.00;;;36.80;99.30;;;;;;4988788;28;20201;-72
2023/08/15 08:12:30;;;;;;;3.90;2.97;;;37.30;99.90;;;;;;4986985;28;20239;-72
2023/08/15 08:14:57;;;;;;;3.75;3.45;;;37.70;99.80;;;;;;4986887;28;20229;-74
2023/08/15 08:17:22;;;;;;;4.00;3.70;;;38.10;99.70;;;;;;4985495;28;20247;-71
2023/08/15 08:19:48;;;;;;;3.53;3.05;;;38.30;98.70;;;;;;4984851;28;20768;-72
2023/08/15 08:22:14;;;;;;;5.03;3.80;;;38.00;98.10;;;;;;4985514;28;20296;-72
2023/08/15 08:24:40;;;;;;;4.60;3.00;;;37.40;98.90;;;;;;4981605;28;20202;-74
2023/08/15 08:27:05;;;;;;;5.30;3.15;;;37.60;99.90;;;;;;4984771;28;20288;-73
2023/08/15 08:29:31;;;;;;;3.45;3.15;;;36.90;99.90;;;;;;4979729;28;20288;-72
2023/08/15 08:31:57;;;;;;;3.80;3.47;;;38.00;99.50;;;;;;4983137;28;20313;-73
2023/08/15 08:34:22;;;;;;;4.18;3.55;;;37.50;99.80;;;;;;4990960;28;20711;-72
2023/08/15 08:36:48;;;;;;;5.45;3.00;;;37.00;99.90;;;;;;4992949;28;20181;-73
2023/08/15 08:39:13;;;;;;;5.00;3.95;;;37.80;99.90;;;;;;4992936;28;20224;-73
2023/08/15 08:41:40;;;;;;;12.27;6.82;;;38.50;99.70;;;;;;4991135;28;20217;-74
2023/08/15 08:44:06;;;;;;;4.82;3.70;;;38.00;99.60;;;;;;4993988;28;20843;-73
2023/08/15 08:46:32;;;;;;;5.00;3.70;;;38.40;98.20;;;;;;4993799;28;20179;-73
2023/08/15 08:49:00;;;;;;;4.55;3.63;;;38.00;98.60;;;;;;4991507;28;20191;-73
2023/08/15 08:51:27;;;;;;;6.25;4.00;;;38.00;99.00;;;;;;4987277;28;20215;-72
2023/08/15 08:53:53;;;;;;;5.05;3.67;;;37.50;98.70;;;;;;4987784;28;20708;-73
2023/08/15 08:56:22;;;;;;;4.40;4.00;;;36.20;99.90;;;;;;4988298;28;20205;-73
2023/08/15 08:59:04;;;;;;;6.30;3.70;;;36.30;99.90;;;;;;4986710;28;20621;-74
2023/08/15 09:01:33;;;;;;;4.10;3.58;;;37.60;99.90;;;;;;4981995;28;20600;-73
2023/08/15 09:04:00;;;;;;;4.10;3.78;;;37.70;99.90;;;;;;4987074;28;20704;-74
2023/08/15 09:06:28;;;;;;;5.82;4.10;;;38.20;99.90;;;;;;4981950;28;20215;-73
2023/08/15 09:08:57;;;;;;;5.75;3.90;;;38.10;99.90;;;;;;4983033;28;20746;-73
2023/08/15 09:11:23;;;;;;;6.47;5.22;;;38.70;99.50;;;;;;4980861;28;20263;-71
2023/08/15 09:13:49;;;;;;;6.25;5.00;;;38.70;99.40;;;;;;4990445;28;20205;-73
2023/08/15 09:16:16;;;;;;;4.65;4.22;;;37.70;99.60;;;;;;4991153;28;20253;-73
2023/08/15 09:18:43;;;;;;;8.20;6.43;;;36.70;99.90;;;;;;4988616;28;20213;-73
2023/08/15 09:21:08;;;;;;;10.68;7.00;;;37.10;99.90;;;;;;4989336;28;20292;-73
2023/08/15 09:23:34;;;;;;;5.53;4.85;;;37.10;99.90;;;;;;4987002;28;20299;-71
2023/08/15 09:26:14;;;;;;;9.02;6.30;;;36.40;99.90;;;;;;4989415;28;20624;-73
2023/08/15 09:28:41;;;;;;;5.93;5.00;;;35.60;99.90;;;;;;4985464;28;20205;-73
2023/08/15 09:31:08;;;;;;;5.80;5.18;;;34.90;99.90;;;;;;4990047;28;20276;-72
2023/08/15 09:33:38;;;;;;;7.20;5.20;;;34.40;99.90;;;;;;4983851;28;20232;-71
2023/08/15 09:36:08;;;;;;;7.15;4.60;;;34.10;99.90;;;;;;4985880;28;20690;-73
2023/08/15 09:38:36;;;;;;;5.22;4.72;;;34.10;99.90;;;;;;4982622;28;20300;-72
2023/08/15 09:41:02;;;;;;;7.22;5.00;;;34.30;99.90;;;;;;4984845;28;20348;-72
2023/08/15 09:43:29;;;;;;;5.97;4.85;;;34.00;99.90;;;;;;4982417;28;20288;-72
2023/08/15 09:45:56;;;;;;;6.57;5.18;;;33.50;99.90;;;;;;4983027;28;20570;-72
2023/08/15 09:48:22;;;;;;;5.43;4.78;;;32.80;99.90;;;;;;4980272;28;20289;-71
2023/08/15 09:50:48;;;;;;;8.65;5.13;;;32.70;99.90;;;;;;4979792;28;20210;-74
2023/08/15 09:53:15;;;;;;;6.22;5.05;;;33.00;99.90;;;;;;4985227;28;20220;-72
2023/08/15 09:55:41;;;;;;;5.72;4.88;;;32.80;99.90;;;;;;4989412;28;20236;-73
2023/08/15 09:58:07;;;;;;;5.35;4.85;;;32.70;99.90;;;;;;4990713;28;20181;-73
2023/08/15 10:00:35;;;;;;;5.25;4.72;;;32.70;99.90;;;;;;4986919;28;20239;-73
2023/08/15 10:03:06;;;;;;;5.47;4.93;;;32.60;99.90;;;;;;4989691;28;20300;-72
2023/08/15 10:05:33;;;;;;;9.63;5.30;;;32.60;99.90;;;;;;4987222;28;20206;-73
2023/08/15 10:07:59;;;;;;;6.05;5.45;;;32.50;99.90;;;;;;4988885;28;20209;-73
2023/08/15 10:10:27;;;;;;;5.93;4.97;;;32.50;99.90;;;;;;4986384;28;20288;-72
2023/08/15 10:12:54;;;;;;;40.33;28.33;;;32.20;99.90;;;;;;4986439;28;20673;-74
2023/08/15 10:15:21;;;;;;;12.88;10.20;;;32.20;99.90;;;;;;4985610;28;20209;-74
2023/08/15 10:17:49;;;;;;;8.50;5.90;;;32.20;99.90;;;;;;4983820;28;20207;-74
2023/08/15 10:20:19;;;;;;;6.32;5.13;;;32.10;99.90;;;;;;4984752;28;20220;-72
2023/08/15 10:22:50;;;;;;;6.88;6.25;;;31.70;99.90;;;;;;4983906;28;20226;-75
2023/08/15 10:25:22;;;;;;;6.30;5.60;;;31.70;99.90;;;;;;4983647;28;20197;-75
2023/08/15 10:27:50;;;;;;;6.43;5.13;;;31.80;99.90;;;;;;4983228;28;20305;-74
2023/08/15 10:30:35;;;;;;;6.60;5.80;;;31.40;99.90;;;;;;4984851;28;20240;-73
2023/08/15 10:33:11;;;;;;;6.80;6.03;;;30.70;99.90;;;;;;4988699;28;20700;-75
2023/08/15 10:35:37;;;;;;;7.15;5.88;;;29.80;99.90;;;;;;4990292;28;20730;-74
2023/08/15 10:38:27;;;;;;;7.47;6.22;;;29.60;99.90;;;;;;4993081;28;20213;-74
2023/08/15 10:41:04;;;;;;;7.10;6.38;;;29.10;99.90;;;;;;4995378;28;20583;-73
2023/08/15 10:43:35;;;;;;;8.00;6.07;;;29.30;99.90;;;;;;4989324;28;20590;-75
2023/08/15 10:46:04;;;;;;;7.68;6.97;;;29.40;99.90;;;;;;4990215;28;20546;-74
2023/08/15 10:48:42;;;;;;;6.97;5.70;;;29.70;99.90;;;;;;4996535;28;20240;-73
2023/08/15 10:51:39;;;;;;;6.53;5.90;;;30.00;99.90;;;;;;4988580;28;20562;-72
2023/08/15 10:54:13;;;;;;;7.65;6.00;;;30.80;99.90;;;;;;4987811;28;20209;-73
2023/08/15 10:56:41;;;;;;;7.30;6.40;;;30.90;99.90;;;;;;4987684;28;20210;-74
2023/08/15 10:59:09;;;;;;;9.30;6.03;;;31.50;99.90;;;;;;4987600;28;20633;-72
2023/08/15 11:01:39;;;;;;;9.48;7.35;;;31.80;99.90;;;;;;4986123;28;20182;-73
2023/08/15 11:04:09;;;;;;;7.15;6.45;;;32.20;99.90;;;;;;4988232;28;20212;-72
2023/08/15 11:06:49;;;;;;;8.88;7.53;;;32.80;99.90;;;;;;4983768;28;20206;-72
2023/08/15 11:09:15;;;;;;;7.07;5.88;;;33.20;99.90;;;;;;4988839;28;20212;-72
2023/08/15 11:11:41;;;;;;;8.32;6.88;;;33.40;99.90;;;;;;4982904;28;20241;-72
2023/08/15 11:14:18;;;;;;;8.90;6.35;;;33.30;99.90;;;;;;4991645;28;20230;-73
2023/08/15 11:16:45;;;;;;;7.05;6.28;;;33.30;99.90;;;;;;4991687;28;20235;-73
2023/08/15 11:19:13;;;;;;;7.78;5.97;;;33.50;99.90;;;;;;4995472;28;20220;-73
2023/08/15 11:21:39;;;;;;;7.80;6.15;;;32.50;99.90;;;;;;4991780;28;20206;-71
2023/08/15 11:24:05;;;;;;;6.53;4.68;;;32.10;99.90;;;;;;4993428;28;20265;-72
2023/08/15 11:26:30;;;;;;;10.25;5.88;;;32.00;99.90;;;;;;4989384;28;20209;-72
2023/08/15 11:28:56;;;;;;;7.43;5.32;;;32.20;99.90;;;;;;4995632;28;20214;-73
2023/08/15 11:31:22;;;;;;;8.52;5.90;;;32.40;99.90;;;;;;4988683;28;20185;-73
2023/08/15 11:33:50;;;;;;;5.85;5.28;;;32.50;99.90;;;;;;4986376;28;20218;-72
2023/08/15 11:36:16;;;;;;;8.90;5.38;;;32.50;99.90;;;;;;4987636;28;20213;-72
2023/08/15 11:38:41;;;;;;;6.47;5.07;;;32.70;99.90;;;;;;4981971;28;20226;-72
2023/08/15 11:41:07;;;;;;;7.55;5.22;;;32.60;99.90;;;;;;4989068;28;20221;-70
2023/08/15 11:43:33;;;;;;;8.52;5.40;;;32.70;99.90;;;;;;4975893;28;20252;-72
2023/08/15 11:46:04;;;;;;;8.35;5.55;;;32.90;99.90;;;;;;4984188;28;20180;-73
2023/08/15 11:48:34;;;;;;;5.63;4.95;;;32.90;99.90;;;;;;4987145;28;20219;-74
2023/08/15 11:51:00;;;;;;;4.80;3.88;;;32.90;99.90;;;;;;4983884;28;20985;-74
2023/08/15 11:53:27;;;;;;;4.45;4.00;;;32.80;99.90;;;;;;4987841;28;20247;-73
2023/08/15 11:55:53;;;;;;;3.90;3.45;;;32.90;99.90;;;;;;4993277;28;20592;-73
2023/08/15 11:58:26;;;;;;;5.00;3.17;;;32.80;99.90;;;;;;4994917;28;20182;-73
2023/08/15 12:00:55;;;;;;;7.38;3.47;;;32.80;99.90;;;;;;4991148;28;20228;-74
2023/08/15 12:03:21;;;;;;;4.63;3.78;;;32.90;99.90;;;;;;4989561;28;20254;-73
2023/08/15 12:05:47;;;;;;;6.10;4.22;;;33.00;99.90;;;;;;4987609;28;20338;-73
2023/08/15 12:08:15;;;;;;;5.20;3.60;;;33.00;99.90;;;;;;4988573;28;20237;-73
2023/08/15 12:10:41;;;;;;;5.35;4.13;;;33.00;99.90;;;;;;4986238;28;20198;-72
2023/08/15 12:13:06;;;;;;;4.85;3.78;;;33.10;99.90;;;;;;4992220;28;20209;-73
2023/08/15 12:15:32;;;;;;;4.82;4.22;;;32.80;99.90;;;;;;4985408;28;20288;-73
2023/08/15 12:17:57;;;;;;;6.80;4.10;;;32.80;99.90;;;;;;4985524;28;20222;-73
2023/08/15 12:20:23;;;;;;;7.68;4.18;;;32.60;99.90;;;;;;4985157;28;20213;-72
2023/08/15 12:22:49;;;;;;;5.90;4.30;;;32.70;99.90;;;;;;4982638;28;20616;-74
2023/08/15 12:25:14;;;;;;;4.55;3.92;;;32.60;99.90;;;;;;4985573;28;20182;-74
2023/08/15 12:27:40;;;;;;;5.03;3.70;;;32.00;99.90;;;;;;4981343;28;20210;-71
2023/08/15 12:30:07;;;;;;;8.18;4.45;;;32.00;99.90;;;;;;4990346;28;20716;-73
2023/08/15 12:32:33;;;;;;;6.43;4.72;;;31.90;99.90;;;;;;4983827;28;20221;-73
2023/08/15 12:34:59;;;;;;;6.03;4.43;;;32.10;99.90;;;;;;4993959;28;20312;-73
2023/08/15 12:37:25;;;;;;;5.72;4.10;;;32.10;99.90;;;;;;4993688;28;20182;-73
2023/08/15 12:39:50;;;;;;;6.00;4.63;;;32.30;99.90;;;;;;4992383;28;20235;-73
2023/08/15 12:42:16;;;;;;;5.55;5.05;;;32.30;99.90;;;;;;4994075;28;20256;-74
2023/08/15 12:44:42;;;;;;;7.13;4.00;;;32.30;99.90;;;;;;4988367;28;20212;-74